Martin Challenger — WDB2346 — position and weather

sailwx.info

Track history (hours):
 
Tides and Currents Weather Stations Pressure Air Temp Water Temp Dewpoint Dewpoint Depression Visibility Wind Speed Wind Dir Waves Ship Positions

Martin Challenger

Owner: MARTIN OPERATING PARTNERSHIP LP, VIDOR, TX. More information available from US FCC via Universal Licensing System and Coast Guard Vessel Documentation Center.

Last reported at 2015-Apr-21 05:33 UTC. Time now 2015-Apr-21 06:34 UTC.
Position N 29°44' W 095°03'.

Length 20 m; draft 2.9 m.

MMSI: 366874920.

Date/timePositionNaut miles runAvg speedWind from/ knotsBaromVisibWave heightAir tempDewpointWater temp
2015-Apr-21 05:33N 29°44' W 095°03'0 0.0
2015-Apr-21 04:33N 29°44' W 095°03'0 0.0
2015-Apr-21 03:33N 29°44' W 095°03'0 0.0
2015-Apr-21 02:33N 29°44' W 095°03'0 0.0
2015-Apr-21 01:32N 29°44' W 095°03'0 0.0
2015-Apr-21 00:33N 29°44' W 095°03'0 0.0
2015-Apr-20 23:33N 29°44' W 095°03'0 0.0
2015-Apr-20 22:33N 29°44' W 095°03'0 0.0
2015-Apr-20 21:33N 29°44' W 095°03'1 1.4
2015-Apr-20 20:33N 29°45' W 095°04'3 2.5
2015-Apr-20 19:33N 29°47' W 095°04'0 0.1
2015-Apr-20 18:33N 29°47' W 095°04'2 2.2
2015-Apr-20 17:34N 29°46' W 095°06'1 0.9
2015-Apr-20 16:26N 29°47' W 095°06'0 0.0
2015-Apr-20 15:33N 29°47' W 095°06'0 0.0
2015-Apr-19 16:26N 29°46' W 095°06'1 0.8
2015-Apr-19 15:33N 29°46' W 095°06'2 1.5
2015-Apr-19 14:33N 29°47' W 095°04'3 3.2
2015-Apr-19 13:32N 29°44' W 095°03'4 3.7
2015-Apr-19 12:33N 29°42' W 094°60'5 4.7
2015-Apr-19 11:33N 29°37' W 094°58'5 5.0
2015-Apr-19 10:33N 29°33' W 094°55'10 0.3
2015-Apr-17 21:09N 29°23' W 094°53'7 0.2
2015-Apr-16 09:25N 29°24' W 094°45'6 1.1
2015-Apr-16 04:33N 29°27' W 094°51'6 5.7
2015-Apr-16 03:33N 29°32' W 094°54'6 5.6
2015-Apr-16 02:33N 29°37' W 094°57'5 5.5
2015-Apr-16 01:33N 29°42' W 094°60'5 4.9
2015-Apr-16 00:33N 29°45' W 095°04'3 2.4
2015-Apr-15 23:28N 29°46' W 095°07'0 0.0
2015-Apr-15 04:06N 29°46' W 095°07'3 1.8
2015-Apr-15 02:33N 29°47' W 095°04'3 1.4
2015-Apr-15 00:31N 29°46' W 095°06'3 2.6
2015-Apr-14 23:31N 29°47' W 095°04'  
2015-Apr-11 13:33N 29°47' W 095°04'0 0.4
2015-Apr-11 12:33N 29°47' W 095°04'2 1.5
2015-Apr-11 11:32N 29°45' W 095°04'4 3.8
2015-Apr-11 10:34N 29°43' W 095°01'4 4.5
2015-Apr-11 09:33N 29°39' W 094°58'5 5.4
2015-Apr-11 08:33N 29°34' W 094°55'  
Track history (hours):
 
Tides and Currents Weather Stations Pressure Air Temp Water Temp Dewpoint Dewpoint Depression Visibility Wind Speed Wind Dir Waves Ship Positions

Martin Challenger

Owner: MARTIN OPERATING PARTNERSHIP LP, VIDOR, TX. More information available from US FCC via Universal Licensing System and Coast Guard Vessel Documentation Center.

Last reported at 2015-Apr-21 05:33 UTC. Time now 2015-Apr-21 06:34 UTC.
Position N 29°44' W 095°03'.

Length 20 m; draft 2.9 m.

MMSI: 366874920.

Date/timePositionNaut miles runAvg speedWind from/ knotsBaromVisibWave heightAir tempDewpointWater temp
2015-Apr-21 05:33N 29°44' W 095°03'0 0.0
2015-Apr-21 04:33N 29°44' W 095°03'0 0.0
2015-Apr-21 03:33N 29°44' W 095°03'0 0.0
2015-Apr-21 02:33N 29°44' W 095°03'0 0.0
2015-Apr-21 01:32N 29°44' W 095°03'0 0.0
2015-Apr-21 00:33N 29°44' W 095°03'0 0.0
2015-Apr-20 23:33N 29°44' W 095°03'0 0.0
2015-Apr-20 22:33N 29°44' W 095°03'0 0.0
2015-Apr-20 21:33N 29°44' W 095°03'1 1.4
2015-Apr-20 20:33N 29°45' W 095°04'3 2.5
2015-Apr-20 19:33N 29°47' W 095°04'0 0.1
2015-Apr-20 18:33N 29°47' W 095°04'2 2.2
2015-Apr-20 17:34N 29°46' W 095°06'1 0.9
2015-Apr-20 16:26N 29°47' W 095°06'0 0.0
2015-Apr-20 15:33N 29°47' W 095°06'0 0.0
2015-Apr-19 16:26N 29°46' W 095°06'1 0.8
2015-Apr-19 15:33N 29°46' W 095°06'2 1.5
2015-Apr-19 14:33N 29°47' W 095°04'3 3.2
2015-Apr-19 13:32N 29°44' W 095°03'4 3.7
2015-Apr-19 12:33N 29°42' W 094°60'5 4.7
2015-Apr-19 11:33N 29°37' W 094°58'5 5.0
2015-Apr-19 10:33N 29°33' W 094°55'10 0.3
2015-Apr-17 21:09N 29°23' W 094°53'7 0.2
2015-Apr-16 09:25N 29°24' W 094°45'6 1.1
2015-Apr-16 04:33N 29°27' W 094°51'6 5.7
2015-Apr-16 03:33N 29°32' W 094°54'6 5.6
2015-Apr-16 02:33N 29°37' W 094°57'5 5.5
2015-Apr-16 01:33N 29°42' W 094°60'5 4.9
2015-Apr-16 00:33N 29°45' W 095°04'3 2.4
2015-Apr-15 23:28N 29°46' W 095°07'0 0.0
2015-Apr-15 04:06N 29°46' W 095°07'3 1.8
2015-Apr-15 02:33N 29°47' W 095°04'3 1.4
2015-Apr-15 00:31N 29°46' W 095°06'3 2.6
2015-Apr-14 23:31N 29°47' W 095°04'  
2015-Apr-11 13:33N 29°47' W 095°04'0 0.4
2015-Apr-11 12:33N 29°47' W 095°04'2 1.5
2015-Apr-11 11:32N 29°45' W 095°04'4 3.8
2015-Apr-11 10:34N 29°43' W 095°01'4 4.5
2015-Apr-11 09:33N 29°39' W 094°58'5 5.4
2015-Apr-11 08:33N 29°34' W 094°55'  

Dump ship's entire track history